Date,TemperatureHighF,TemperatureAvgF,TemperatureLowF,DewpointHighF,DewpointAvgF,DewpointLowF,HumidityHigh,HumidityAvg,HumidityLow,PressureMaxIn,PressureMinIn,WindSpeedMaxMPH,WindSpeedAvgMPH,GustSpeedMaxMPH,PrecipitationSumIn
2013-1-1,44,35,30,42,35,30,99,98,87,30.70,30.56,4,0,7,0.01
2013-1-2,32,29,28,32,29,28,99,99,99,30.57,30.39,2,0,3,0.00
2013-1-3,49,32,24,38,30,24,99,93,54,30.40,30.29,3,0,8,0.68
2013-1-4,49,41,37,49,41,37,99,99,95,30.48,30.34,4,1,12,0.04
2013-1-5,44,41,39,44,41,39,99,99,99,30.39,30.30,2,0,6,0.09
2013-1-6,44,41,39,44,41,39,99,99,96,30.36,30.16,4,1,13,0.09
2013-1-7,58,45,41,52,44,41,99,97,79,30.34,29.96,5,1,15,0.05
2013-1-8,50,46,42,50,46,42,99,99,99,30.35,29.90,4,1,20,1.38
2013-1-9,49,46,43,49,46,43,99,99,99,29.92,29.90,4,2,17,0.77
2013-1-10,37,33,29,37,33,29,99,99,99,30.33,30.21,1,0,4,0.08
2013-1-11,46,32,26,32,28,25,99,87,49,30.52,30.32,2,0,7,0.04
2013-1-12,43,30,25,34,28,25,99,94,68,30.63,30.51,3,0,8,0.02
2013-1-13,38,31,27,34,30,27,99,95,81,30.69,30.63,2,0,4,0.00
2013-1-14,45,31,26,35,29,26,99,94,66,30.77,30.66,3,0,8,0.00
2013-1-15,37,32,27,37,32,27,99,99,99,30.90,30.76,1,0,2,0.02
2013-1-16,48,32,27,43,31,27,99,97,75,30.88,30.72,2,0,6,0.00
2013-1-17,36,32,28,36,32,28,99,99,99,30.73,30.49,2,0,3,0.02
2013-1-18,36,34,29,36,34,29,99,99,99,30.54,29.91,2,0,4,0.00
2013-1-19,40,36,35,39,36,35,99,99,95,30.59,29.96,2,0,4,0.00
2013-1-20,49,37,30,46,37,30,99,98,85,30.59,30.46,2,1,5,0.00
2013-1-21,37,35,32,37,35,32,99,99,99,30.47,30.33,2,0,5,0.00
2013-1-22,37,33,30,37,33,30,99,99,99,30.34,30.11,2,0,4,0.00
2013-1-23,44,40,35,44,40,35,99,99,99,30.32,30.04,2,0,11,0.49
2013-1-24,44,40,37,43,40,37,99,98,93,30.40,30.23,2,0,8,0.19
2013-1-25,58,44,39,51,42,38,99,95,65,30.25,30.10,3,1,10,0.01
2013-1-26,45,40,36,43,39,36,99,98,93,30.23,30.06,4,1,14,0.32
2013-1-27,43,38,35,41,38,35,99,98,92,30.24,30.17,4,1,12,0.00
2013-1-28,41,37,32,41,37,32,99,99,99,30.28,30.19,2,0,3,0.08
2013-1-29,51,42,38,51,42,38,99,98,89,30.52,30.28,2,0,4,0.12
2013-1-30,52,44,42,51,44,42,99,99,96,30.58,30.50,1,0,3,0.01
2013-1-31,55,47,43,49,46,43,99,96,78,30.57,30.46,5,1,18,0.01